createdAt,value
2022-12-09T00:01:16.763Z,170.10
2022-12-09T00:03:44.699Z,159.80
2022-12-09T00:06:27.732Z,173.33
2022-12-09T00:08:57.577Z,166.80
2022-12-09T00:11:26.208Z,169.10
2022-12-09T00:13:57.343Z,173.83
2022-12-09T00:16:25.500Z,163.30
2022-12-09T00:18:53.153Z,166.87
2022-12-09T00:21:23.067Z,163.37
2022-12-09T00:23:52.795Z,164.30
2022-12-09T00:26:21.134Z,172.23
2022-12-09T00:28:50.478Z,164.23
2022-12-09T00:31:24.770Z,164.10
2022-12-09T00:33:55.504Z,163.43
2022-12-09T00:36:23.682Z,166.80
2022-12-09T00:38:51.049Z,162.53
2022-12-09T00:41:18.686Z,161.37
2022-12-09T00:43:47.733Z,168.50
2022-12-09T00:46:16.034Z,168.93
2022-12-09T00:48:45.683Z,163.60
2022-12-09T00:51:18.133Z,161.70
2022-12-09T00:53:45.914Z,167.67
2022-12-09T00:56:13.336Z,161.33
2022-12-09T00:58:40.377Z,169.27
2022-12-09T01:01:07.712Z,161.73
2022-12-09T01:03:35.189Z,165.20
2022-12-09T01:06:08.502Z,159.63
2022-12-09T01:08:38.986Z,163.23
2022-12-09T01:11:16.866Z,161.70
2022-12-09T01:13:43.894Z,158.90
2022-12-09T01:16:27.692Z,161.87
2022-12-09T01:18:59.561Z,164.63
2022-12-09T01:21:28.782Z,164.03
2022-12-09T01:23:55.855Z,157.27
2022-12-09T01:26:23.175Z,159.03
2022-12-09T01:28:52.950Z,164.07
2022-12-09T01:31:24.088Z,165.93
2022-12-09T01:33:52.065Z,164.80
2022-12-09T01:36:27.891Z,163.30
2022-12-09T01:38:58.376Z,161.80
2022-12-09T01:41:25.629Z,157.97
2022-12-09T01:44:24.328Z,162.23
2022-12-09T01:46:56.832Z,160.80
2022-12-09T01:49:42.564Z,167.53
2022-12-09T01:52:18.500Z,171.40
2022-12-09T01:54:47.067Z,161.53
2022-12-09T01:57:15.885Z,166.33
2022-12-09T01:59:44.266Z,163.53
2022-12-09T02:02:16.974Z,179.80
2022-12-09T02:04:47.928Z,169.67
2022-12-09T02:07:18.249Z,171.60
2022-12-09T02:09:45.562Z,170.57
2022-12-09T02:12:17.466Z,171.97
2022-12-09T02:14:50.672Z,167.53
2022-12-09T02:17:48.726Z,169.50
2022-12-09T02:20:39.031Z,174.67
2022-12-09T02:23:23.645Z,169.77
2022-12-09T02:26:27.615Z,164.60
2022-12-09T02:29:36.789Z,171.30
2022-12-09T02:32:33.462Z,163.17
2022-12-09T02:35:32.266Z,167.87
2022-12-09T02:38:11.815Z,160.13
2022-12-09T02:40:58.183Z,163.97
2022-12-09T02:43:30.535Z,162.60
2022-12-09T02:46:00.469Z,162.07
2022-12-09T02:48:37.135Z,166.30
2022-12-09T02:51:09.912Z,156.37
2022-12-09T02:53:40.194Z,160.93
2022-12-09T02:56:08.423Z,161.80
2022-12-09T02:58:35.835Z,162.27
2022-12-09T03:01:04.517Z,168.87
2022-12-09T03:03:34.894Z,156.53
2022-12-09T03:06:10.280Z,164.77
2022-12-09T03:08:53.255Z,160.73
2022-12-09T03:11:23.164Z,160.30
2022-12-09T03:14:00.087Z,162.77
2022-12-09T03:16:39.198Z,155.33
2022-12-09T03:19:21.017Z,159.80
2022-12-09T03:21:52.369Z,157.40
2022-12-09T03:24:26.220Z,166.37
2022-12-09T03:26:54.435Z,169.63
2022-12-09T03:29:26.959Z,167.60
2022-12-09T03:31:56.277Z,163.23
2022-12-09T03:34:29.739Z,157.73
2022-12-09T03:36:58.787Z,166.77
2022-12-09T03:39:32.842Z,164.93
2022-12-09T03:42:05.063Z,164.27
2022-12-09T03:44:50.553Z,159.70
2022-12-09T03:47:17.857Z,154.90
2022-12-09T03:49:45.292Z,159.20
2022-12-09T03:52:28.806Z,162.03
2022-12-09T03:55:08.741Z,157.73
2022-12-09T03:57:41.478Z,165.33
2022-12-09T04:00:10.922Z,156.00
2022-12-09T04:02:41.089Z,163.77
2022-12-09T04:05:09.404Z,168.00
2022-12-09T04:07:37.100Z,162.47
2022-12-09T04:10:06.704Z,163.73
2022-12-09T04:12:33.960Z,161.70
2022-12-09T04:15:00.946Z,170.73
2022-12-09T04:17:27.992Z,165.17
2022-12-09T04:19:55.098Z,163.67
2022-12-09T04:22:22.060Z,163.10
2022-12-09T04:24:49.223Z,173.20
2022-12-09T04:27:16.347Z,162.30
2022-12-09T04:29:45.736Z,168.27
2022-12-09T04:32:12.859Z,162.03
2022-12-09T04:34:40.315Z,162.77
2022-12-09T04:37:07.439Z,163.97
2022-12-09T04:39:34.427Z,164.80
2022-12-09T04:42:01.456Z,163.37
2022-12-09T04:44:28.521Z,162.43
2022-12-09T04:46:55.590Z,167.57
2022-12-09T04:49:22.824Z,166.90
2022-12-09T04:51:49.795Z,165.37
2022-12-09T04:54:16.882Z,165.27
2022-12-09T04:56:44.484Z,158.17
2022-12-09T04:59:11.836Z,164.50
2022-12-09T05:01:39.244Z,164.50
2022-12-09T05:04:06.465Z,164.40
2022-12-09T05:06:33.645Z,172.37
2022-12-09T05:09:01.206Z,164.53
2022-12-09T05:11:28.435Z,166.90
2022-12-09T05:13:56.604Z,165.80
2022-12-09T05:16:24.104Z,167.37
2022-12-09T05:18:51.571Z,168.93
2022-12-09T05:21:21.589Z,164.03
2022-12-09T05:23:49.657Z,171.13
2022-12-09T05:26:21.324Z,164.97
2022-12-09T05:28:49.375Z,161.47
2022-12-09T05:31:20.406Z,170.67
2022-12-09T05:33:50.663Z,162.80
2022-12-09T05:36:24.339Z,170.07
2022-12-09T05:38:52.559Z,168.23
2022-12-09T05:41:20.555Z,169.70
2022-12-09T05:43:47.915Z,170.70
2022-12-09T05:46:16.580Z,168.83
2022-12-09T05:48:44.283Z,177.90
2022-12-09T05:51:22.446Z,194.00
2022-12-09T05:53:49.831Z,166.33
2022-12-09T05:56:19.725Z,169.13
2022-12-09T05:58:47.504Z,165.87
2022-12-09T06:01:15.590Z,168.33
2022-12-09T06:03:43.145Z,169.70
2022-12-09T06:06:15.044Z,165.63
2022-12-09T06:08:44.060Z,170.57
2022-12-09T06:11:22.020Z,171.30
2022-12-09T06:13:50.841Z,164.87
2022-12-09T06:16:20.925Z,167.27
2022-12-09T06:18:49.404Z,174.03
2022-12-09T06:21:19.039Z,178.23
2022-12-09T06:23:47.615Z,176.90
2022-12-09T06:26:25.265Z,170.67
2022-12-09T06:28:53.703Z,182.20
2022-12-09T06:31:21.997Z,167.60
2022-12-09T06:33:58.340Z,184.67
2022-12-09T06:36:29.134Z,177.63
2022-12-09T06:39:03.102Z,174.90
2022-12-09T06:41:35.309Z,176.90
2022-12-09T06:44:02.738Z,178.27
2022-12-09T06:46:30.032Z,177.37
2022-12-09T06:48:57.667Z,183.87
2022-12-09T06:51:26.067Z,186.73
2022-12-09T06:53:54.304Z,197.63
2022-12-09T06:56:22.374Z,190.20
2022-12-09T06:58:50.107Z,182.90
2022-12-09T07:01:21.825Z,188.30
2022-12-09T07:03:52.542Z,195.27
2022-12-09T07:06:32.834Z,195.77
2022-12-09T07:09:04.729Z,198.83
2022-12-09T07:11:32.782Z,193.23
2022-12-09T07:14:00.554Z,198.60
2022-12-09T07:16:28.476Z,188.73
2022-12-09T07:18:56.560Z,200.47
2022-12-09T07:21:24.814Z,188.13
2022-12-09T07:23:52.618Z,182.77
2022-12-09T07:26:20.854Z,186.73
2022-12-09T07:28:50.163Z,185.17
2022-12-09T07:31:27.462Z,186.50
2022-12-09T07:33:57.701Z,194.30
2022-12-09T07:36:31.590Z,186.43
2022-12-09T07:39:13.389Z,187.47
2022-12-09T07:41:41.398Z,181.17
2022-12-09T07:44:09.487Z,178.00
2022-12-09T07:46:37.182Z,188.63
2022-12-09T07:49:06.162Z,183.97
2022-12-09T07:51:34.174Z,181.80
2022-12-09T07:54:01.726Z,170.10
2022-12-09T07:56:29.339Z,171.77
2022-12-09T07:58:57.623Z,173.30
2022-12-09T08:01:28.610Z,173.30
2022-12-09T08:03:56.641Z,170.63
2022-12-09T08:06:27.486Z,170.60
2022-12-09T08:08:59.597Z,171.63
2022-12-09T08:11:29.527Z,171.80
2022-12-09T08:14:04.338Z,158.13
2022-12-09T08:16:35.051Z,179.20
2022-12-09T08:19:02.799Z,173.93
2022-12-09T08:21:32.901Z,171.30
2022-12-09T08:24:03.472Z,173.23
2022-12-09T08:26:32.410Z,177.20
2022-12-09T08:29:00.355Z,173.87
2022-12-09T08:31:28.642Z,172.07
2022-12-09T08:33:57.097Z,181.23
2022-12-09T08:36:27.316Z,179.37
2022-12-09T08:38:56.142Z,359.50
2022-12-09T08:41:36.846Z,325.47
2022-12-09T08:44:15.412Z,317.10
2022-12-09T08:46:49.454Z,383.33
2022-12-09T08:49:20.169Z,349.50
2022-12-09T08:51:50.212Z,347.80
2022-12-09T08:54:18.266Z,315.37
2022-12-09T08:56:55.218Z,284.50
2022-12-09T08:59:23.177Z,303.90
2022-12-09T09:01:50.583Z,232.13
2022-12-09T09:04:21.119Z,236.37
2022-12-09T09:06:51.510Z,224.90
2022-12-09T09:09:20.640Z,265.10
2022-12-09T09:11:48.882Z,251.87
2022-12-09T09:14:16.812Z,291.93
2022-12-09T09:16:45.321Z,261.23
2022-12-09T09:19:21.853Z,337.17
2022-12-09T09:21:50.011Z,315.30
2022-12-09T09:24:20.013Z,335.07
2022-12-09T09:26:49.349Z,266.53
2022-12-09T09:29:21.218Z,210.87
2022-12-09T09:31:49.827Z,324.40
2022-12-09T09:34:19.171Z,271.20
2022-12-09T09:36:47.032Z,279.23
2022-12-09T09:39:14.605Z,347.27
2022-12-09T09:42:06.280Z,418.70
2022-12-09T09:44:49.311Z,284.37
2022-12-09T09:47:30.375Z,263.13
2022-12-09T09:50:17.628Z,316.30
2022-12-09T09:52:45.341Z,216.27
2022-12-09T09:55:18.582Z,202.00
2022-12-09T09:58:05.970Z,211.30
2022-12-09T10:00:52.521Z,240.67
2022-12-09T10:04:06.802Z,213.73
2022-12-09T10:07:08.000Z,206.63
2022-12-09T10:10:14.917Z,264.33
2022-12-09T10:13:11.084Z,275.77
2022-12-09T10:16:20.239Z,291.50
2022-12-09T10:19:07.663Z,261.70
2022-12-09T10:21:42.484Z,219.73
2022-12-09T10:24:24.953Z,210.23
2022-12-09T10:27:10.366Z,249.70
2022-12-09T10:29:51.612Z,238.33
2022-12-09T10:32:21.614Z,214.57
2022-12-09T10:34:49.621Z,197.17
2022-12-09T10:37:42.991Z,233.73
2022-12-09T10:40:10.993Z,364.57
2022-12-09T10:43:13.119Z,309.23
2022-12-09T10:48:49.042Z,240.37
2022-12-09T10:51:34.932Z,257.80
2022-12-09T10:54:19.344Z,279.63
2022-12-09T10:57:25.190Z,263.40
2022-12-09T11:00:06.138Z,214.20
2022-12-09T11:02:34.809Z,202.90
2022-12-09T11:05:25.509Z,320.00
2022-12-09T11:07:55.312Z,233.93
2022-12-09T11:10:29.609Z,244.27
2022-12-09T11:13:06.384Z,240.87
2022-12-09T11:15:45.093Z,276.57
2022-12-09T11:18:45.659Z,279.20
2022-12-09T11:21:35.876Z,257.97
2022-12-09T11:24:04.855Z,217.90
2022-12-09T11:26:37.613Z,225.03
2022-12-09T11:29:16.470Z,218.30
2022-12-09T11:31:45.366Z,277.83
2022-12-09T11:34:21.506Z,245.50
2022-12-09T11:36:53.109Z,233.27
2022-12-09T11:39:27.600Z,253.97
2022-12-09T11:42:17.567Z,284.43
2022-12-09T11:45:04.536Z,223.57
2022-12-09T11:50:31.633Z,235.03
2022-12-09T11:53:22.356Z,270.63
2022-12-09T11:56:20.507Z,262.80
2022-12-09T11:59:05.779Z,223.77
2022-12-09T12:02:05.943Z,230.60
2022-12-09T12:05:03.707Z,246.50
2022-12-09T12:08:18.775Z,217.77
2022-12-09T12:10:57.848Z,221.83
2022-12-09T12:13:46.334Z,216.83
2022-12-09T12:16:49.112Z,269.20
2022-12-09T12:19:30.746Z,318.70
2022-12-09T12:22:09.257Z,210.03
2022-12-09T12:25:00.292Z,225.17
2022-12-09T12:27:53.185Z,224.90
2022-12-09T12:30:24.436Z,299.40
2022-12-09T12:34:00.521Z,290.47
2022-12-09T12:36:47.995Z,246.30
2022-12-09T12:39:32.376Z,382.63
2022-12-09T12:42:12.941Z,302.53
2022-12-09T12:45:32.635Z,369.83
2022-12-09T12:48:22.988Z,284.50
2022-12-09T12:50:52.633Z,399.73
2022-12-09T12:53:41.439Z,241.33
2022-12-09T12:56:29.779Z,235.50
2022-12-09T12:59:09.373Z,232.97
2022-12-09T13:02:59.351Z,214.00
2022-12-09T13:05:36.632Z,218.37
2022-12-09T13:08:11.577Z,213.47
2022-12-09T13:10:47.979Z,247.27
2022-12-09T13:13:25.934Z,368.77
2022-12-09T13:15:58.416Z,272.80
2022-12-09T13:18:32.764Z,260.63
2022-12-09T13:21:02.705Z,290.30
2022-12-09T13:24:10.832Z,302.20
2022-12-09T13:26:57.870Z,269.90
2022-12-09T13:30:03.985Z,260.53
2022-12-09T13:33:05.668Z,197.20
2022-12-09T13:35:45.156Z,245.50
2022-12-09T13:38:25.816Z,276.20
2022-12-09T13:40:53.187Z,237.37
2022-12-09T13:43:29.198Z,376.27
2022-12-09T13:46:00.282Z,358.10
2022-12-09T13:48:29.981Z,233.77
2022-12-09T13:50:59.783Z,289.10
2022-12-09T13:53:35.017Z,391.90
2022-12-09T13:56:21.490Z,194.57
2022-12-09T13:59:33.897Z,247.63
2022-12-09T14:02:16.093Z,253.60
2022-12-09T14:05:01.724Z,389.27
2022-12-09T14:07:57.653Z,213.57
2022-12-09T14:10:44.350Z,242.57
2022-12-09T14:13:32.399Z,251.00
2022-12-09T14:16:28.387Z,270.60
2022-12-09T14:18:56.778Z,244.23
2022-12-09T14:21:31.614Z,252.83
2022-12-09T14:24:11.451Z,247.20
2022-12-09T14:26:44.463Z,325.33
2022-12-09T14:29:11.896Z,231.40
2022-12-09T14:32:02.569Z,229.70
2022-12-09T14:34:59.826Z,294.07
2022-12-09T14:37:54.132Z,240.90
2022-12-09T14:40:47.465Z,227.17
2022-12-09T14:43:49.747Z,212.33
2022-12-09T14:46:41.500Z,227.73
2022-12-09T14:49:28.024Z,374.33
2022-12-09T14:52:05.238Z,258.90
2022-12-09T14:54:35.467Z,249.93
2022-12-09T14:57:19.169Z,259.53
2022-12-09T14:59:51.904Z,212.27
2022-12-09T15:02:26.616Z,229.00
2022-12-09T15:04:54.860Z,228.40
2022-12-09T15:07:25.184Z,249.13
2022-12-09T15:09:57.368Z,312.30
2022-12-09T15:12:41.318Z,325.10
2022-12-09T15:15:21.573Z,325.90
2022-12-09T15:18:07.374Z,449.27
2022-12-09T15:20:41.053Z,418.17
2022-12-09T15:23:31.580Z,349.77
2022-12-09T15:26:05.123Z,364.17
2022-12-09T15:28:35.870Z,381.57
2022-12-09T15:31:07.442Z,405.03
2022-12-09T15:33:50.500Z,475.53
2022-12-09T15:36:38.044Z,393.23
2022-12-09T15:39:32.818Z,288.47
2022-12-09T15:42:07.720Z,283.77
2022-12-09T15:44:39.814Z,299.90
2022-12-09T15:47:13.440Z,288.73
2022-12-09T15:49:57.601Z,294.77
2022-12-09T15:52:32.577Z,303.00
2022-12-09T15:55:06.802Z,276.03
2022-12-09T15:57:35.729Z,331.60
2022-12-09T16:00:03.979Z,358.47
2022-12-09T16:02:34.938Z,313.37
2022-12-09T16:05:08.822Z,304.23
2022-12-09T16:07:36.696Z,287.10
2022-12-09T16:10:15.185Z,320.03
2022-12-09T16:12:44.132Z,272.63
2022-12-09T16:15:14.112Z,254.40
2022-12-09T16:17:56.621Z,290.43
2022-12-09T16:20:45.821Z,394.33
2022-12-09T16:23:24.168Z,306.90
2022-12-09T16:25:51.913Z,283.87
2022-12-09T16:28:23.713Z,286.90
2022-12-09T16:30:57.703Z,341.37
2022-12-09T16:33:25.117Z,305.13
2022-12-09T16:36:02.276Z,353.10
2022-12-09T16:38:31.237Z,346.67
2022-12-09T16:40:59.924Z,370.70
2022-12-09T16:43:28.721Z,362.57
2022-12-09T16:46:22.205Z,353.10
2022-12-09T16:48:49.995Z,284.83
2022-12-09T16:51:23.985Z,262.07
2022-12-09T16:53:52.579Z,242.70
2022-12-09T16:56:29.099Z,325.10
2022-12-09T16:58:57.549Z,244.40
2022-12-09T17:01:31.819Z,316.90
2022-12-09T17:04:23.734Z,292.37
2022-12-09T17:06:51.266Z,282.30
2022-12-09T17:09:19.064Z,313.30
2022-12-09T17:11:49.039Z,404.67
2022-12-09T17:14:17.274Z,328.37
2022-12-09T17:16:44.493Z,256.27
2022-12-09T17:19:12.789Z,263.33
2022-12-09T17:21:39.785Z,224.47
2022-12-09T17:24:07.465Z,252.00
2022-12-09T17:26:34.520Z,250.00
2022-12-09T17:29:02.140Z,263.60
2022-12-09T17:31:29.704Z,221.50
2022-12-09T17:33:57.976Z,225.13
2022-12-09T17:36:25.699Z,271.63
2022-12-09T17:38:52.710Z,297.47
2022-12-09T17:41:23.595Z,310.50
2022-12-09T17:43:50.640Z,285.07
2022-12-09T17:46:17.997Z,306.23
2022-12-09T17:48:45.208Z,357.87
2022-12-09T17:51:15.029Z,247.77
2022-12-09T17:53:42.782Z,345.30
2022-12-09T17:56:13.408Z,290.07
2022-12-09T17:58:41.490Z,296.67
2022-12-09T18:01:21.152Z,389.63
2022-12-09T18:03:57.270Z,408.97
2022-12-09T18:06:28.046Z,300.40
2022-12-09T18:08:55.130Z,230.27
2022-12-09T18:11:22.815Z,323.80
2022-12-09T18:13:50.711Z,282.93
2022-12-09T18:16:18.381Z,353.90
2022-12-09T18:18:46.264Z,278.17
2022-12-09T18:21:15.922Z,422.67
2022-12-09T18:23:43.495Z,271.57
2022-12-09T18:26:14.521Z,307.90
2022-12-09T18:28:41.473Z,256.43
2022-12-09T18:31:15.232Z,435.67
2022-12-09T18:33:43.173Z,309.63
2022-12-09T18:36:20.672Z,299.70
2022-12-09T18:38:48.223Z,233.37
2022-12-09T18:41:20.366Z,289.33
2022-12-09T18:43:50.753Z,373.63
2022-12-09T18:46:25.454Z,405.17
2022-12-09T18:49:32.105Z,329.93
2022-12-09T18:51:59.101Z,369.07
2022-12-09T18:54:29.270Z,296.30
2022-12-09T18:56:56.578Z,238.27
2022-12-09T18:59:25.625Z,283.57
2022-12-09T19:01:53.484Z,356.57
2022-12-09T19:04:24.922Z,341.17
2022-12-09T19:06:56.695Z,241.07
2022-12-09T19:09:35.858Z,257.77
2022-12-09T19:12:30.077Z,388.53
2022-12-09T19:14:51.957Z,337.83
2022-12-09T19:17:18.987Z,479.13
2022-12-09T19:19:47.328Z,392.93
2022-12-09T19:22:14.677Z,405.03
2022-12-09T19:24:43.341Z,379.27
2022-12-09T19:27:10.684Z,359.47
2022-12-09T19:29:37.867Z,294.40
2022-12-09T19:32:13.881Z,336.70
2022-12-09T19:34:45.568Z,222.47
2022-12-09T19:37:13.123Z,393.50
2022-12-09T19:39:43.181Z,373.40
2022-12-09T19:42:10.118Z,277.40
2022-12-09T19:45:00.126Z,353.47
2022-12-09T19:47:24.026Z,285.23
2022-12-09T19:49:51.063Z,256.00
2022-12-09T19:52:18.421Z,311.37
2022-12-09T19:54:45.407Z,234.23
2022-12-09T19:57:12.394Z,298.40
2022-12-09T19:59:39.331Z,271.67
2022-12-09T20:02:11.852Z,297.60
2022-12-09T20:04:48.675Z,333.63
2022-12-09T20:07:17.537Z,321.87
2022-12-09T20:09:44.584Z,256.57
2022-12-09T20:12:11.669Z,306.20
2022-12-09T20:14:39.551Z,372.87
2022-12-09T20:17:06.581Z,329.27
2022-12-09T20:19:35.847Z,273.60
2022-12-09T20:22:02.981Z,344.40
2022-12-09T20:24:30.444Z,227.07
2022-12-09T20:26:57.503Z,295.80
2022-12-09T20:29:24.487Z,457.33
2022-12-09T20:31:52.781Z,371.87
2022-12-09T20:34:19.874Z,322.63
2022-12-09T20:36:47.268Z,301.57
2022-12-09T20:39:20.545Z,391.47
2022-12-09T20:41:48.778Z,419.60
2022-12-09T20:44:17.442Z,442.53
2022-12-09T20:46:53.032Z,433.67
2022-12-09T20:49:26.316Z,374.97
2022-12-09T20:51:54.257Z,398.03
2022-12-09T20:54:21.686Z,362.93
2022-12-09T20:56:49.033Z,348.07
2022-12-09T20:59:16.264Z,398.23
2022-12-09T21:01:47.288Z,207.70
2022-12-09T21:04:15.518Z,255.03
2022-12-09T21:06:42.790Z,223.40
2022-12-09T21:09:14.982Z,293.23
2022-12-09T21:11:42.032Z,278.70
2022-12-09T21:14:10.763Z,331.73
2022-12-09T21:16:41.605Z,259.73
2022-12-09T21:19:13.826Z,283.80
2022-12-09T21:21:46.855Z,225.60
2022-12-09T21:24:15.854Z,252.50
2022-12-09T21:26:43.009Z,298.77
2022-12-09T21:29:11.590Z,269.67
2022-12-09T21:31:41.075Z,299.07
2022-12-09T21:34:10.230Z,267.43
2022-12-09T21:36:42.821Z,281.10
2022-12-09T21:39:15.623Z,255.33
2022-12-09T21:41:43.891Z,313.27
2022-12-09T21:44:17.584Z,276.40
2022-12-09T21:46:45.366Z,256.03
2022-12-09T21:49:13.427Z,236.80
2022-12-09T21:51:40.488Z,289.00
2022-12-09T21:54:07.515Z,330.83
2022-12-09T21:56:36.099Z,223.50
2022-12-09T21:59:06.335Z,218.90
2022-12-09T22:01:37.647Z,258.13
2022-12-09T22:04:08.410Z,357.10
2022-12-09T22:06:35.590Z,323.67
2022-12-09T22:09:05.063Z,289.77
2022-12-09T22:11:36.355Z,335.87
2022-12-09T22:14:04.246Z,242.30
2022-12-09T22:16:35.983Z,223.50
2022-12-09T22:19:05.969Z,217.87
2022-12-09T22:21:33.910Z,506.07
2022-12-09T22:24:04.538Z,263.90
2022-12-09T22:26:32.244Z,222.33
2022-12-09T22:29:01.600Z,247.00
2022-12-09T22:31:34.138Z,222.60
2022-12-09T22:34:10.074Z,238.30
2022-12-09T22:36:37.236Z,241.67
2022-12-09T22:39:06.903Z,252.37
2022-12-09T22:41:34.715Z,237.50
2022-12-09T22:44:02.084Z,325.13
2022-12-09T22:46:32.845Z,335.87
2022-12-09T22:49:06.343Z,237.03
2022-12-09T22:51:36.477Z,242.03
2022-12-09T22:54:06.743Z,242.70
2022-12-09T22:56:36.646Z,257.87
2022-12-09T22:59:03.899Z,237.87
2022-12-09T23:01:35.711Z,231.50
2022-12-09T23:04:03.717Z,233.43
2022-12-09T23:06:30.965Z,316.23
2022-12-09T23:08:58.606Z,255.33
2022-12-09T23:11:28.309Z,375.60
2022-12-09T23:13:56.064Z,401.43
2022-12-09T23:16:25.519Z,246.87
2022-12-09T23:18:56.568Z,247.07
2022-12-09T23:21:30.783Z,236.37
2022-12-09T23:24:04.120Z,296.33
2022-12-09T23:26:34.018Z,324.90
2022-12-09T23:29:02.611Z,305.10
2022-12-09T23:31:32.812Z,347.93
2022-12-09T23:34:00.845Z,283.77
2022-12-09T23:36:32.466Z,292.80
2022-12-09T23:39:01.385Z,275.37
2022-12-09T23:41:29.069Z,306.90
2022-12-09T23:43:56.343Z,240.50
2022-12-09T23:46:27.121Z,239.13
2022-12-09T23:48:55.922Z,234.53
2022-12-09T23:51:27.506Z,220.30
2022-12-09T23:54:01.200Z,288.47
2022-12-09T23:56:32.561Z,252.83
2022-12-09T23:59:06.437Z,266.67
